sensor_id;sensor_type;location;lat;lon;timestamp;temperature;humidity
81488;DHT22;70897;52.464;13.428;2024-02-23T00:00:29;10.00;99.90
81488;DHT22;70897;52.464;13.428;2024-02-23T00:03:14;10.00;99.90
81488;DHT22;70897;52.464;13.428;2024-02-23T00:05:59;10.00;99.90
81488;DHT22;70897;52.464;13.428;2024-02-23T00:08:44;10.00;99.90
81488;DHT22;70897;52.464;13.428;2024-02-23T00:11:30;10.00;99.90
81488;DHT22;70897;52.464;13.428;2024-02-23T00:14:16;10.00;99.90
81488;DHT22;70897;52.464;13.428;2024-02-23T00:17:03;10.00;99.90
81488;DHT22;70897;52.464;13.428;2024-02-23T00:19:48;10.00;99.90
81488;DHT22;70897;52.464;13.428;2024-02-23T00:22:33;10.10;99.90
81488;DHT22;70897;52.464;13.428;2024-02-23T00:25:18;10.10;99.90
81488;DHT22;70897;52.464;13.428;2024-02-23T00:28:04;10.10;99.90
81488;DHT22;70897;52.464;13.428;2024-02-23T00:30:49;10.10;99.90
81488;DHT22;70897;52.464;13.428;2024-02-23T00:33:35;10.10;99.90
81488;DHT22;70897;52.464;13.428;2024-02-23T00:36:22;10.20;99.90
81488;DHT22;70897;52.464;13.428;2024-02-23T00:39:07;10.20;99.90
81488;DHT22;70897;52.464;13.428;2024-02-23T00:41:53;10.10;99.90
81488;DHT22;70897;52.464;13.428;2024-02-23T00:44:38;10.10;99.90
81488;DHT22;70897;52.464;13.428;2024-02-23T00:47:23;10.00;99.90
81488;DHT22;70897;52.464;13.428;2024-02-23T00:55:38;9.90;99.90
81488;DHT22;70897;52.464;13.428;2024-02-23T00:58:24;10.00;99.90
81488;DHT22;70897;52.464;13.428;2024-02-23T01:01:09;10.00;99.90
81488;DHT22;70897;52.464;13.428;2024-02-23T01:03:54;10.00;99.90
81488;DHT22;70897;52.464;13.428;2024-02-23T01:06:39;10.00;99.90
81488;DHT22;70897;52.464;13.428;2024-02-23T01:09:24;10.00;99.90
81488;DHT22;70897;52.464;13.428;2024-02-23T01:12:09;10.10;99.90
81488;DHT22;70897;52.464;13.428;2024-02-23T01:14:54;10.10;99.90
81488;DHT22;70897;52.464;13.428;2024-02-23T01:17:39;10.10;99.90
81488;DHT22;70897;52.464;13.428;2024-02-23T01:20:24;10.00;99.90
81488;DHT22;70897;52.464;13.428;2024-02-23T01:23:09;10.00;99.90
81488;DHT22;70897;52.464;13.428;2024-02-23T01:25:54;10.10;99.90
81488;DHT22;70897;52.464;13.428;2024-02-23T01:28:39;10.10;99.90
81488;DHT22;70897;52.464;13.428;2024-02-23T01:31:24;10.10;99.90
81488;DHT22;70897;52.464;13.428;2024-02-23T01:34:09;10.20;99.90
81488;DHT22;70897;52.464;13.428;2024-02-23T01:36:54;10.20;99.90
81488;DHT22;70897;52.464;13.428;2024-02-23T01:39:39;10.30;99.90
81488;DHT22;70897;52.464;13.428;2024-02-23T01:42:24;10.30;99.90
81488;DHT22;70897;52.464;13.428;2024-02-23T01:45:10;10.40;99.90
81488;DHT22;70897;52.464;13.428;2024-02-23T01:47:55;10.40;99.90
81488;DHT22;70897;52.464;13.428;2024-02-23T01:50:40;10.40;99.90
81488;DHT22;70897;52.464;13.428;2024-02-23T01:53:27;10.40;99.90
81488;DHT22;70897;52.464;13.428;2024-02-23T01:56:13;10.50;99.90
81488;DHT22;70897;52.464;13.428;2024-02-23T01:59:02;10.60;99.90
81488;DHT22;70897;52.464;13.428;2024-02-23T02:01:48;10.80;99.90
81488;DHT22;70897;52.464;13.428;2024-02-23T02:04:34;10.80;99.90
81488;DHT22;70897;52.464;13.428;2024-02-23T02:07:18;10.80;99.90
81488;DHT22;70897;52.464;13.428;2024-02-23T02:10:07;10.80;99.90
81488;DHT22;70897;52.464;13.428;2024-02-23T02:12:53;10.80;99.90
81488;DHT22;70897;52.464;13.428;2024-02-23T02:15:38;10.80;99.90
81488;DHT22;70897;52.464;13.428;2024-02-23T02:18:23;10.80;99.90
81488;DHT22;70897;52.464;13.428;2024-02-23T02:21:08;10.70;99.90
81488;DHT22;70897;52.464;13.428;2024-02-23T02:23:53;10.80;99.90
81488;DHT22;70897;52.464;13.428;2024-02-23T02:26:38;10.70;99.90
81488;DHT22;70897;52.464;13.428;2024-02-23T02:29:23;10.50;99.90
81488;DHT22;70897;52.464;13.428;2024-02-23T02:32:08;10.50;99.90
81488;DHT22;70897;52.464;13.428;2024-02-23T02:34:53;10.50;99.90
81488;DHT22;70897;52.464;13.428;2024-02-23T02:37:39;10.50;99.90
81488;DHT22;70897;52.464;13.428;2024-02-23T02:40:24;10.40;99.90
81488;DHT22;70897;52.464;13.428;2024-02-23T02:43:09;10.50;99.90
81488;DHT22;70897;52.464;13.428;2024-02-23T02:45:54;10.40;99.90
81488;DHT22;70897;52.464;13.428;2024-02-23T02:48:39;10.40;99.90
81488;DHT22;70897;52.464;13.428;2024-02-23T02:51:24;10.30;99.90
81488;DHT22;70897;52.464;13.428;2024-02-23T02:54:10;10.20;99.90
81488;DHT22;70897;52.464;13.428;2024-02-23T02:56:55;10.30;99.90
81488;DHT22;70897;52.464;13.428;2024-02-23T02:59:40;10.20;99.90
81488;DHT22;70897;52.464;13.428;2024-02-23T03:02:25;10.20;99.90
81488;DHT22;70897;52.464;13.428;2024-02-23T03:05:10;10.20;99.90
81488;DHT22;70897;52.464;13.428;2024-02-23T03:07:55;10.20;99.90
81488;DHT22;70897;52.464;13.428;2024-02-23T03:10:40;10.20;97.90
81488;DHT22;70897;52.464;13.428;2024-02-23T03:13:25;10.20;98.00
81488;DHT22;70897;52.464;13.428;2024-02-23T03:16:20;10.10;99.20
81488;DHT22;70897;52.464;13.428;2024-02-23T03:19:08;10.10;98.20
81488;DHT22;70897;52.464;13.428;2024-02-23T03:21:53;10.10;98.60
81488;DHT22;70897;52.464;13.428;2024-02-23T03:24:38;10.00;97.40
81488;DHT22;70897;52.464;13.428;2024-02-23T03:27:27;10.00;97.00
81488;DHT22;70897;52.464;13.428;2024-02-23T03:30:12;9.90;98.60
81488;DHT22;70897;52.464;13.428;2024-02-23T03:32:57;9.80;97.70
81488;DHT22;70897;52.464;13.428;2024-02-23T03:35:42;9.90;96.10
81488;DHT22;70897;52.464;13.428;2024-02-23T03:38:27;10.00;94.70
81488;DHT22;70897;52.464;13.428;2024-02-23T03:41:14;9.90;95.10
81488;DHT22;70897;52.464;13.428;2024-02-23T03:43:59;9.90;95.00
81488;DHT22;70897;52.464;13.428;2024-02-23T03:46:44;9.80;96.10
81488;DHT22;70897;52.464;13.428;2024-02-23T03:49:29;9.70;96.10
81488;DHT22;70897;52.464;13.428;2024-02-23T03:52:14;9.60;97.40
81488;DHT22;70897;52.464;13.428;2024-02-23T03:54:59;9.50;97.30
81488;DHT22;70897;52.464;13.428;2024-02-23T03:57:44;9.50;96.80
81488;DHT22;70897;52.464;13.428;2024-02-23T04:00:29;9.60;97.30
81488;DHT22;70897;52.464;13.428;2024-02-23T04:03:14;9.50;98.00
81488;DHT22;70897;52.464;13.428;2024-02-23T04:05:59;9.40;99.90
81488;DHT22;70897;52.464;13.428;2024-02-23T04:08:44;9.30;99.90
81488;DHT22;70897;52.464;13.428;2024-02-23T04:11:29;9.20;99.90
81488;DHT22;70897;52.464;13.428;2024-02-23T04:14:14;9.20;99.90
81488;DHT22;70897;52.464;13.428;2024-02-23T04:16:59;9.10;99.90
81488;DHT22;70897;52.464;13.428;2024-02-23T04:19:44;9.10;99.90
81488;DHT22;70897;52.464;13.428;2024-02-23T04:22:29;9.10;99.90
81488;DHT22;70897;52.464;13.428;2024-02-23T04:25:14;9.10;99.90
81488;DHT22;70897;52.464;13.428;2024-02-23T04:27:59;9.10;99.90
81488;DHT22;70897;52.464;13.428;2024-02-23T04:30:44;9.00;99.90
81488;DHT22;70897;52.464;13.428;2024-02-23T04:33:29;9.00;99.90
81488;DHT22;70897;52.464;13.428;2024-02-23T04:36:14;9.00;99.90
81488;DHT22;70897;52.464;13.428;2024-02-23T04:39:03;9.00;99.90
81488;DHT22;70897;52.464;13.428;2024-02-23T04:41:49;9.00;99.90
81488;DHT22;70897;52.464;13.428;2024-02-23T04:44:35;9.00;99.90
81488;DHT22;70897;52.464;13.428;2024-02-23T04:47:19;9.00;99.90
81488;DHT22;70897;52.464;13.428;2024-02-23T04:50:05;9.10;98.20
81488;DHT22;70897;52.464;13.428;2024-02-23T04:52:50;9.10;99.90
81488;DHT22;70897;52.464;13.428;2024-02-23T04:55:35;9.10;97.90
81488;DHT22;70897;52.464;13.428;2024-02-23T04:58:20;9.20;95.40
81488;DHT22;70897;52.464;13.428;2024-02-23T05:01:05;9.20;94.70
81488;DHT22;70897;52.464;13.428;2024-02-23T05:03:50;9.20;96.90
81488;DHT22;70897;52.464;13.428;2024-02-23T05:06:36;9.10;96.20
81488;DHT22;70897;52.464;13.428;2024-02-23T05:09:21;9.10;95.80
81488;DHT22;70897;52.464;13.428;2024-02-23T05:12:08;9.10;95.60
81488;DHT22;70897;52.464;13.428;2024-02-23T05:14:53;9.10;95.10
81488;DHT22;70897;52.464;13.428;2024-02-23T05:17:38;9.10;95.00
81488;DHT22;70897;52.464;13.428;2024-02-23T05:20:23;9.10;93.90
81488;DHT22;70897;52.464;13.428;2024-02-23T05:23:08;9.10;94.70
81488;DHT22;70897;52.464;13.428;2024-02-23T05:25:53;8.90;95.70
81488;DHT22;70897;52.464;13.428;2024-02-23T05:28:38;8.90;96.10
81488;DHT22;70897;52.464;13.428;2024-02-23T05:31:44;8.80;96.50
81488;DHT22;70897;52.464;13.428;2024-02-23T05:34:29;8.70;95.00
81488;DHT22;70897;52.464;13.428;2024-02-23T05:37:15;8.70;93.80
81488;DHT22;70897;52.464;13.428;2024-02-23T05:40:00;8.50;93.70
81488;DHT22;70897;52.464;13.428;2024-02-23T05:42:48;8.40;94.00
81488;DHT22;70897;52.464;13.428;2024-02-23T05:45:33;8.40;95.20
81488;DHT22;70897;52.464;13.428;2024-02-23T05:48:18;8.30;93.50
81488;DHT22;70897;52.464;13.428;2024-02-23T05:51:04;8.20;93.60
81488;DHT22;70897;52.464;13.428;2024-02-23T05:53:49;8.10;94.50
81488;DHT22;70897;52.464;13.428;2024-02-23T05:56:35;8.00;95.10
81488;DHT22;70897;52.464;13.428;2024-02-23T05:59:20;7.90;95.50
81488;DHT22;70897;52.464;13.428;2024-02-23T06:02:05;7.90;96.10
81488;DHT22;70897;52.464;13.428;2024-02-23T06:04:51;7.80;96.50
81488;DHT22;70897;52.464;13.428;2024-02-23T06:07:36;7.70;97.40
81488;DHT22;70897;52.464;13.428;2024-02-23T06:10:21;7.70;97.70
81488;DHT22;70897;52.464;13.428;2024-02-23T06:13:06;7.80;95.30
81488;DHT22;70897;52.464;13.428;2024-02-23T06:15:51;7.90;94.30
81488;DHT22;70897;52.464;13.428;2024-02-23T06:18:38;7.90;95.90
81488;DHT22;70897;52.464;13.428;2024-02-23T06:21:25;7.90;95.50
81488;DHT22;70897;52.464;13.428;2024-02-23T06:24:10;7.90;93.10
81488;DHT22;70897;52.464;13.428;2024-02-23T06:26:55;7.80;96.10
81488;DHT22;70897;52.464;13.428;2024-02-23T06:29:42;7.70;96.00
81488;DHT22;70897;52.464;13.428;2024-02-23T06:32:27;7.70;94.70
81488;DHT22;70897;52.464;13.428;2024-02-23T06:35:14;7.70;94.70
81488;DHT22;70897;52.464;13.428;2024-02-23T06:37:59;7.80;95.00
81488;DHT22;70897;52.464;13.428;2024-02-23T06:40:44;7.80;95.10
81488;DHT22;70897;52.464;13.428;2024-02-23T06:43:29;7.80;96.00
81488;DHT22;70897;52.464;13.428;2024-02-23T06:46:15;7.90;95.30
81488;DHT22;70897;52.464;13.428;2024-02-23T06:49:00;8.00;94.50
81488;DHT22;70897;52.464;13.428;2024-02-23T06:51:45;8.10;96.10
81488;DHT22;70897;52.464;13.428;2024-02-23T06:54:30;8.10;95.00
81488;DHT22;70897;52.464;13.428;2024-02-23T06:57:15;8.70;99.90
81488;DHT22;70897;52.464;13.428;2024-02-23T07:00:00;9.70;99.90
81488;DHT22;70897;52.464;13.428;2024-02-23T07:02:47;9.60;90.60
81488;DHT22;70897;52.464;13.428;2024-02-23T07:05:32;9.40;90.50
81488;DHT22;70897;52.464;13.428;2024-02-23T07:08:17;9.20;93.70
81488;DHT22;70897;52.464;13.428;2024-02-23T07:11:02;9.10;93.90
81488;DHT22;70897;52.464;13.428;2024-02-23T07:13:47;9.00;97.10
81488;DHT22;70897;52.464;13.428;2024-02-23T07:16:32;9.00;95.10
81488;DHT22;70897;52.464;13.428;2024-02-23T07:19:17;8.90;93.90
81488;DHT22;70897;52.464;13.428;2024-02-23T07:22:04;8.90;95.30
81488;DHT22;70897;52.464;13.428;2024-02-23T07:24:49;8.80;95.90
81488;DHT22;70897;52.464;13.428;2024-02-23T07:27:34;8.80;98.00
81488;DHT22;70897;52.464;13.428;2024-02-23T07:30:20;8.80;95.90
81488;DHT22;70897;52.464;13.428;2024-02-23T07:33:05;8.70;97.20
81488;DHT22;70897;52.464;13.428;2024-02-23T07:35:50;8.70;95.50
81488;DHT22;70897;52.464;13.428;2024-02-23T07:38:35;8.70;98.50
81488;DHT22;70897;52.464;13.428;2024-02-23T07:41:20;8.50;94.90
81488;DHT22;70897;52.464;13.428;2024-02-23T07:44:05;8.50;94.90
81488;DHT22;70897;52.464;13.428;2024-02-23T07:46:50;8.50;99.00
81488;DHT22;70897;52.464;13.428;2024-02-23T07:49:37;8.50;99.40
81488;DHT22;70897;52.464;13.428;2024-02-23T07:52:22;8.60;99.90
81488;DHT22;70897;52.464;13.428;2024-02-23T07:55:10;8.60;99.90
81488;DHT22;70897;52.464;13.428;2024-02-23T07:57:55;8.70;97.10
81488;DHT22;70897;52.464;13.428;2024-02-23T08:00:45;8.80;96.90
81488;DHT22;70897;52.464;13.428;2024-02-23T08:03:31;8.80;98.40
81488;DHT22;70897;52.464;13.428;2024-02-23T08:06:16;9.30;99.90
81488;DHT22;70897;52.464;13.428;2024-02-23T08:09:01;10.50;99.90
81488;DHT22;70897;52.464;13.428;2024-02-23T08:11:47;12.20;90.60
81488;DHT22;70897;52.464;13.428;2024-02-23T08:14:32;13.40;86.50
81488;DHT22;70897;52.464;13.428;2024-02-23T08:17:18;13.90;77.40
81488;DHT22;70897;52.464;13.428;2024-02-23T08:20:03;14.20;73.60
81488;DHT22;70897;52.464;13.428;2024-02-23T08:22:49;14.50;64.80
81488;DHT22;70897;52.464;13.428;2024-02-23T08:25:34;14.70;65.90
81488;DHT22;70897;52.464;13.428;2024-02-23T08:28:19;14.40;61.10
81488;DHT22;70897;52.464;13.428;2024-02-23T08:31:04;13.60;62.80
81488;DHT22;70897;52.464;13.428;2024-02-23T08:33:49;12.70;64.50
81488;DHT22;70897;52.464;13.428;2024-02-23T08:36:34;12.40;71.30
81488;DHT22;70897;52.464;13.428;2024-02-23T08:39:20;11.80;68.70
81488;DHT22;70897;52.464;13.428;2024-02-23T08:42:07;11.50;71.10
81488;DHT22;70897;52.464;13.428;2024-02-23T08:44:52;11.50;70.50
81488;DHT22;70897;52.464;13.428;2024-02-23T08:47:41;11.30;71.50
81488;DHT22;70897;52.464;13.428;2024-02-23T08:50:26;11.30;74.50
81488;DHT22;70897;52.464;13.428;2024-02-23T08:53:11;11.40;70.60
81488;DHT22;70897;52.464;13.428;2024-02-23T08:55:56;11.30;69.60
81488;DHT22;70897;52.464;13.428;2024-02-23T08:58:41;11.90;71.80
81488;DHT22;70897;52.464;13.428;2024-02-23T09:01:26;12.60;70.30
81488;DHT22;70897;52.464;13.428;2024-02-23T09:04:11;13.00;65.10
81488;DHT22;70897;52.464;13.428;2024-02-23T09:06:56;14.10;64.70
81488;DHT22;70897;52.464;13.428;2024-02-23T09:09:41;14.90;57.30
81488;DHT22;70897;52.464;13.428;2024-02-23T09:12:26;15.10;59.70
81488;DHT22;70897;52.464;13.428;2024-02-23T09:15:11;15.30;60.70
81488;DHT22;70897;52.464;13.428;2024-02-23T09:17:56;15.00;56.80
81488;DHT22;70897;52.464;13.428;2024-02-23T09:20:42;15.50;59.20
81488;DHT22;70897;52.464;13.428;2024-02-23T09:23:27;16.10;60.50
81488;DHT22;70897;52.464;13.428;2024-02-23T09:26:12;16.10;55.40
81488;DHT22;70897;52.464;13.428;2024-02-23T09:28:57;15.40;54.60
81488;DHT22;70897;52.464;13.428;2024-02-23T09:31:42;15.10;54.00
81488;DHT22;70897;52.464;13.428;2024-02-23T09:34:28;15.20;52.70
81488;DHT22;70897;52.464;13.428;2024-02-23T09:37:14;15.40;52.20
81488;DHT22;70897;52.464;13.428;2024-02-23T09:39:59;15.30;51.40
81488;DHT22;70897;52.464;13.428;2024-02-23T09:42:55;15.60;52.50
81488;DHT22;70897;52.464;13.428;2024-02-23T09:45:40;15.80;47.50
81488;DHT22;70897;52.464;13.428;2024-02-23T09:48:26;15.40;48.00
81488;DHT22;70897;52.464;13.428;2024-02-23T09:51:12;15.00;48.70
81488;DHT22;70897;52.464;13.428;2024-02-23T09:53:57;15.30;48.00
81488;DHT22;70897;52.464;13.428;2024-02-23T09:56:42;15.50;47.00
81488;DHT22;70897;52.464;13.428;2024-02-23T10:05:01;16.20;46.90
81488;DHT22;70897;52.464;13.428;2024-02-23T10:07:47;17.70;43.90
81488;DHT22;70897;52.464;13.428;2024-02-23T10:10:33;17.50;43.20
81488;DHT22;70897;52.464;13.428;2024-02-23T10:13:24;17.00;44.40
81488;DHT22;70897;52.464;13.428;2024-02-23T10:16:10;16.00;46.50
81488;DHT22;70897;52.464;13.428;2024-02-23T10:18:54;14.60;50.50
81488;DHT22;70897;52.464;13.428;2024-02-23T10:21:40;13.80;52.80
81488;DHT22;70897;52.464;13.428;2024-02-23T10:24:25;13.40;53.90
81488;DHT22;70897;52.464;13.428;2024-02-23T10:27:11;13.90;53.00
81488;DHT22;70897;52.464;13.428;2024-02-23T10:29:56;14.20;51.50
81488;DHT22;70897;52.464;13.428;2024-02-23T10:32:41;15.60;50.50
81488;DHT22;70897;52.464;13.428;2024-02-23T10:35:27;17.20;46.20
81488;DHT22;70897;52.464;13.428;2024-02-23T10:38:12;18.30;43.10
81488;DHT22;70897;52.464;13.428;2024-02-23T10:41:03;18.60;41.20
81488;DHT22;70897;52.464;13.428;2024-02-23T10:43:50;18.30;40.80
81488;DHT22;70897;52.464;13.428;2024-02-23T10:46:36;17.80;41.40
81488;DHT22;70897;52.464;13.428;2024-02-23T10:49:24;17.30;41.30
81488;DHT22;70897;52.464;13.428;2024-02-23T10:52:12;16.70;41.90
81488;DHT22;70897;52.464;13.428;2024-02-23T10:55:01;16.80;43.00
81488;DHT22;70897;52.464;13.428;2024-02-23T10:57:51;17.20;42.30
81488;DHT22;70897;52.464;13.428;2024-02-23T11:00:38;17.90;40.90
81488;DHT22;70897;52.464;13.428;2024-02-23T11:03:23;17.90;40.30
81488;DHT22;70897;52.464;13.428;2024-02-23T11:06:08;17.60;40.70
81488;DHT22;70897;52.464;13.428;2024-02-23T11:09:04;17.00;41.60
81488;DHT22;70897;52.464;13.428;2024-02-23T11:11:57;18.70;39.60
81488;DHT22;70897;52.464;13.428;2024-02-23T11:14:44;18.60;38.80
81488;DHT22;70897;52.464;13.428;2024-02-23T11:17:30;18.20;37.70
81488;DHT22;70897;52.464;13.428;2024-02-23T11:20:15;17.70;38.70
81488;DHT22;70897;52.464;13.428;2024-02-23T11:23:00;17.50;38.60
81488;DHT22;70897;52.464;13.428;2024-02-23T11:26:09;16.90;40.10
81488;DHT22;70897;52.464;13.428;2024-02-23T11:28:54;17.10;40.40
81488;DHT22;70897;52.464;13.428;2024-02-23T11:31:45;17.00;40.30
81488;DHT22;70897;52.464;13.428;2024-02-23T11:34:31;16.30;41.40
81488;DHT22;70897;52.464;13.428;2024-02-23T11:37:18;16.60;42.20
81488;DHT22;70897;52.464;13.428;2024-02-23T11:40:03;17.10;41.00
81488;DHT22;70897;52.464;13.428;2024-02-23T11:42:50;17.40;40.10
81488;DHT22;70897;52.464;13.428;2024-02-23T11:45:36;17.50;39.90
81488;DHT22;70897;52.464;13.428;2024-02-23T11:48:21;16.80;40.70
81488;DHT22;70897;52.464;13.428;2024-02-23T11:51:06;16.50;41.40
81488;DHT22;70897;52.464;13.428;2024-02-23T11:53:52;16.00;42.70
81488;DHT22;70897;52.464;13.428;2024-02-23T12:13:11;15.20;46.30
81488;DHT22;70897;52.464;13.428;2024-02-23T12:15:56;15.00;45.40
81488;DHT22;70897;52.464;13.428;2024-02-23T12:18:41;14.90;45.80
81488;DHT22;70897;52.464;13.428;2024-02-23T12:21:26;14.60;45.50
81488;DHT22;70897;52.464;13.428;2024-02-23T12:24:12;14.50;45.50
81488;DHT22;70897;52.464;13.428;2024-02-23T12:26:57;14.70;45.20
81488;DHT22;70897;52.464;13.428;2024-02-23T12:29:42;14.40;45.70
81488;DHT22;70897;52.464;13.428;2024-02-23T12:32:27;14.40;46.60
81488;DHT22;70897;52.464;13.428;2024-02-23T12:35:12;13.90;46.90
81488;DHT22;70897;52.464;13.428;2024-02-23T12:37:58;13.60;48.50
81488;DHT22;70897;52.464;13.428;2024-02-23T12:40:44;13.90;49.20
81488;DHT22;70897;52.464;13.428;2024-02-23T12:43:29;14.20;48.20
81488;DHT22;70897;52.464;13.428;2024-02-23T12:46:14;14.20;47.00
81488;DHT22;70897;52.464;13.428;2024-02-23T12:49:00;14.00;47.50
81488;DHT22;70897;52.464;13.428;2024-02-23T12:51:45;13.80;48.00
81488;DHT22;70897;52.464;13.428;2024-02-23T12:54:30;14.00;48.30
81488;DHT22;70897;52.464;13.428;2024-02-23T12:57:15;13.90;47.70
81488;DHT22;70897;52.464;13.428;2024-02-23T13:00:00;14.00;47.80
81488;DHT22;70897;52.464;13.428;2024-02-23T13:02:45;13.80;47.50
81488;DHT22;70897;52.464;13.428;2024-02-23T13:05:30;13.10;48.50
81488;DHT22;70897;52.464;13.428;2024-02-23T13:08:15;12.90;49.90
81488;DHT22;70897;52.464;13.428;2024-02-23T13:11:01;12.70;50.70
81488;DHT22;70897;52.464;13.428;2024-02-23T13:13:46;12.90;51.00
81488;DHT22;70897;52.464;13.428;2024-02-23T13:16:32;13.20;51.00
81488;DHT22;70897;52.464;13.428;2024-02-23T13:19:17;13.40;51.00
81488;DHT22;70897;52.464;13.428;2024-02-23T13:22:02;12.90;51.40
81488;DHT22;70897;52.464;13.428;2024-02-23T13:24:47;12.80;52.30
81488;DHT22;70897;52.464;13.428;2024-02-23T13:27:32;12.50;51.60
81488;DHT22;70897;52.464;13.428;2024-02-23T13:30:17;12.40;53.10
81488;DHT22;70897;52.464;13.428;2024-02-23T13:33:02;12.20;52.80
81488;DHT22;70897;52.464;13.428;2024-02-23T13:35:48;11.90;53.20
81488;DHT22;70897;52.464;13.428;2024-02-23T13:38:33;11.80;53.90
81488;DHT22;70897;52.464;13.428;2024-02-23T13:41:22;11.50;54.40
81488;DHT22;70897;52.464;13.428;2024-02-23T13:44:07;11.40;54.90
81488;DHT22;70897;52.464;13.428;2024-02-23T13:46:52;11.30;54.60
81488;DHT22;70897;52.464;13.428;2024-02-23T13:49:37;11.20;55.50
81488;DHT22;70897;52.464;13.428;2024-02-23T13:52:23;11.30;55.90
81488;DHT22;70897;52.464;13.428;2024-02-23T13:55:08;11.20;55.50
81488;DHT22;70897;52.464;13.428;2024-02-23T13:57:54;11.00;56.30
81488;DHT22;70897;52.464;13.428;2024-02-23T14:00:39;10.80;57.00
81488;DHT22;70897;52.464;13.428;2024-02-23T14:03:24;10.90;57.40
81488;DHT22;70897;52.464;13.428;2024-02-23T14:06:09;10.70;57.40
81488;DHT22;70897;52.464;13.428;2024-02-23T14:08:54;10.70;58.10
81488;DHT22;70897;52.464;13.428;2024-02-23T14:11:39;10.60;58.50
81488;DHT22;70897;52.464;13.428;2024-02-23T14:14:24;10.60;57.60
81488;DHT22;70897;52.464;13.428;2024-02-23T14:17:09;10.50;57.80
81488;DHT22;70897;52.464;13.428;2024-02-23T14:19:55;10.50;58.10
81488;DHT22;70897;52.464;13.428;2024-02-23T14:22:40;10.50;58.10
81488;DHT22;70897;52.464;13.428;2024-02-23T14:25:25;10.40;58.70
81488;DHT22;70897;52.464;13.428;2024-02-23T14:28:10;10.20;58.10
81488;DHT22;70897;52.464;13.428;2024-02-23T14:30:56;10.20;58.70
81488;DHT22;70897;52.464;13.428;2024-02-23T14:33:41;10.10;58.50
81488;DHT22;70897;52.464;13.428;2024-02-23T14:36:26;10.20;58.70
81488;DHT22;70897;52.464;13.428;2024-02-23T14:39:11;10.10;58.60
81488;DHT22;70897;52.464;13.428;2024-02-23T14:41:57;10.00;58.70
81488;DHT22;70897;52.464;13.428;2024-02-23T14:44:42;9.90;59.10
81488;DHT22;70897;52.464;13.428;2024-02-23T14:47:27;9.90;59.50
81488;DHT22;70897;52.464;13.428;2024-02-23T14:50:13;9.80;59.10
81488;DHT22;70897;52.464;13.428;2024-02-23T14:52:58;9.80;59.80
81488;DHT22;70897;52.464;13.428;2024-02-23T14:55:44;9.80;59.70
81488;DHT22;70897;52.464;13.428;2024-02-23T14:58:29;9.80;59.70
81488;DHT22;70897;52.464;13.428;2024-02-23T15:01:14;9.70;59.90
81488;DHT22;70897;52.464;13.428;2024-02-23T15:03:59;9.70;60.20
81488;DHT22;70897;52.464;13.428;2024-02-23T15:06:44;9.70;60.60
81488;DHT22;70897;52.464;13.428;2024-02-23T15:09:29;9.60;61.00
81488;DHT22;70897;52.464;13.428;2024-02-23T15:12:14;9.50;61.90
81488;DHT22;70897;52.464;13.428;2024-02-23T15:14:59;9.50;62.80
81488;DHT22;70897;52.464;13.428;2024-02-23T15:17:44;9.50;62.50
81488;DHT22;70897;52.464;13.428;2024-02-23T15:20:31;9.50;63.60
81488;DHT22;70897;52.464;13.428;2024-02-23T15:23:16;9.40;65.20
81488;DHT22;70897;52.464;13.428;2024-02-23T15:26:01;9.30;64.70
81488;DHT22;70897;52.464;13.428;2024-02-23T15:28:46;9.30;66.00
81488;DHT22;70897;52.464;13.428;2024-02-23T15:31:32;9.30;66.60
81488;DHT22;70897;52.464;13.428;2024-02-23T15:34:17;9.20;66.40
81488;DHT22;70897;52.464;13.428;2024-02-23T15:37:02;9.20;67.40
81488;DHT22;70897;52.464;13.428;2024-02-23T15:39:47;9.10;68.60
81488;DHT22;70897;52.464;13.428;2024-02-23T15:42:32;9.00;69.10
81488;DHT22;70897;52.464;13.428;2024-02-23T15:45:20;9.00;70.40
81488;DHT22;70897;52.464;13.428;2024-02-23T15:48:05;8.90;70.90
81488;DHT22;70897;52.464;13.428;2024-02-23T15:50:50;8.80;72.00
81488;DHT22;70897;52.464;13.428;2024-02-23T15:53:35;8.80;73.00
81488;DHT22;70897;52.464;13.428;2024-02-23T15:56:20;8.70;74.50
81488;DHT22;70897;52.464;13.428;2024-02-23T15:59:06;8.70;74.60
81488;DHT22;70897;52.464;13.428;2024-02-23T16:01:53;8.60;74.80
81488;DHT22;70897;52.464;13.428;2024-02-23T16:04:39;8.60;75.80
81488;DHT22;70897;52.464;13.428;2024-02-23T16:07:24;8.50;75.40
81488;DHT22;70897;52.464;13.428;2024-02-23T16:10:09;8.50;74.80
81488;DHT22;70897;52.464;13.428;2024-02-23T16:12:57;8.50;75.20
81488;DHT22;70897;52.464;13.428;2024-02-23T16:15:45;8.40;75.80
81488;DHT22;70897;52.464;13.428;2024-02-23T16:18:30;8.40;74.80
81488;DHT22;70897;52.464;13.428;2024-02-23T16:21:15;8.30;75.50
81488;DHT22;70897;52.464;13.428;2024-02-23T16:24:00;8.20;75.60
81488;DHT22;70897;52.464;13.428;2024-02-23T16:26:45;8.20;75.80
81488;DHT22;70897;52.464;13.428;2024-02-23T16:29:30;8.10;76.20
81488;DHT22;70897;52.464;13.428;2024-02-23T16:32:15;8.00;77.40
81488;DHT22;70897;52.464;13.428;2024-02-23T16:35:01;7.90;78.70
81488;DHT22;70897;52.464;13.428;2024-02-23T16:37:46;7.90;79.20
81488;DHT22;70897;52.464;13.428;2024-02-23T16:40:31;7.80;79.80
81488;DHT22;70897;52.464;13.428;2024-02-23T16:43:16;7.80;80.70
81488;DHT22;70897;52.464;13.428;2024-02-23T16:46:01;7.70;81.10
81488;DHT22;70897;52.464;13.428;2024-02-23T16:48:46;7.70;82.00
81488;DHT22;70897;52.464;13.428;2024-02-23T16:51:31;7.60;83.60
81488;DHT22;70897;52.464;13.428;2024-02-23T16:54:16;7.50;85.00
81488;DHT22;70897;52.464;13.428;2024-02-23T16:57:01;7.50;85.30
81488;DHT22;70897;52.464;13.428;2024-02-23T16:59:46;7.50;87.10
81488;DHT22;70897;52.464;13.428;2024-02-23T17:02:31;7.50;87.00
81488;DHT22;70897;52.464;13.428;2024-02-23T17:05:17;7.40;87.40
81488;DHT22;70897;52.464;13.428;2024-02-23T17:08:01;7.40;87.90
81488;DHT22;70897;52.464;13.428;2024-02-23T17:10:47;7.40;87.90
81488;DHT22;70897;52.464;13.428;2024-02-23T17:13:32;7.40;88.40
81488;DHT22;70897;52.464;13.428;2024-02-23T17:16:17;7.40;89.40
81488;DHT22;70897;52.464;13.428;2024-02-23T17:19:03;7.30;90.10
81488;DHT22;70897;52.464;13.428;2024-02-23T17:21:48;7.30;90.10
81488;DHT22;70897;52.464;13.428;2024-02-23T17:24:33;7.30;90.50
81488;DHT22;70897;52.464;13.428;2024-02-23T17:27:18;7.20;91.00
81488;DHT22;70897;52.464;13.428;2024-02-23T17:30:05;7.20;91.80
81488;DHT22;70897;52.464;13.428;2024-02-23T17:32:50;7.30;92.00
81488;DHT22;70897;52.464;13.428;2024-02-23T17:35:35;7.30;91.60
81488;DHT22;70897;52.464;13.428;2024-02-23T17:38:20;7.30;91.40
81488;DHT22;70897;52.464;13.428;2024-02-23T17:41:05;7.20;91.80
81488;DHT22;70897;52.464;13.428;2024-02-23T17:43:50;7.20;92.10